Strona główna
METAR-TAF:

METAR-TAF

Lotnisko :

Port lotniczy Salerno-Costa d'Amalfi

Salerno, Włochy

Szerokość geograficzna: 40-37N, Długość geograficzna: 014-55E, wysokość: 40 m

Aktualna obserwacja pogody

Raport powstał 9 godziny i 39 minut temu, godzina 15:50 UTC
Wiatr 12 kt od północ
Temperatura 11°C
Wilgotność 54%
Ciśnienie 1034 hPa
Widzialność 10 km lub więcej
Rozproszone chmury na wysokości 3000 ft
Przerywane chmury na wysokości 7000 ft

METAR: LIRI 201550Z 01012KT 9999 SCT030 BKN070 11/02 Q1034

czas: 02:29 (01:29 UTC)


TAF: brakujący

Obserwacja i prognoza pogody dla ponad 4000 lotnisk (raport METAR i TAF).

Dostępne stacje oznaczono żółtymi i czerwonymi punktami na mapie.

Najedź kursorem aby zobaczyć nazwę stacji.

Kliknij aby zobaczyć obserwacje i prognozy pogody.

Aby zmienić mapę: kliknij na zielony przycisk z czarnym krzyżykiem, aby powiększyć; na zielony przycisk z myślnikiem, aby pomniejszyć; na zielone strzałki, aby przejść do map sąsiednich.


METAR-TAF: